Time;durP1;ratioP1;P1;durP2;ratioP2;P2;SDS_P1;SDS_P2;PMS_P1;PMS_P2;Temp;Humidity;BMP_temperature;BMP_pressure;BME280_temperature;BME280_humidity;BME280_pressure;Samples;Min_cycle;Max_cycle;Signal;HPM_P1;HPM_P2
2024/04/01 04:42:33;;;;;;;23.50;7.40;;;;;;;8.71;100.00;99922.02;108400;1275;22534;-56
2024/04/01 04:45:00;;;;;;;17.90;6.50;;;;;;;8.78;100.00;99922.73;112146;1258;23222;-47
2024/04/01 04:47:26;;;;;;;13.90;4.40;;;;;;;8.85;100.00;99922.57;112206;1246;22404;-49
2024/04/01 04:49:53;;;;;;;21.40;5.40;;;;;;;8.91;100.00;99925.52;112141;1244;22259;-56
2024/04/01 04:52:22;;;;;;;24.40;6.90;;;;;;;8.98;100.00;99921.88;112645;1238;159284;-47
2024/04/01 04:54:49;;;;;;;22.00;5.10;;;;;;;9.06;100.00;99925.71;112761;1243;22948;-57
2024/04/01 04:57:16;;;;;;;15.40;6.30;;;;;;;9.14;100.00;99933.02;111887;1244;22534;-57
2024/04/01 04:59:43;;;;;;;20.90;5.90;;;;;;;9.20;100.00;99935.63;112244;1244;22536;-56
2024/04/01 05:02:10;;;;;;;20.30;6.30;;;;;;;9.25;100.00;99938.77;112380;1249;22970;-56
2024/04/01 05:04:36;;;;;;;12.80;5.60;;;;;;;9.31;100.00;99939.81;112778;1242;22428;-55
2024/04/01 05:07:08;;;;;;;15.20;5.90;;;;;;;9.39;100.00;99939.45;112477;1242;22474;-47
2024/04/01 05:09:43;;;;;;;20.20;6.40;;;;;;;9.47;100.00;99943.45;112818;1245;23157;-57
2024/04/01 05:12:10;;;;;;;16.90;4.50;;;;;;;9.54;100.00;99946.58;113116;1241;22441;-57
2024/04/01 05:14:39;;;;;;;19.00;5.70;;;;;;;9.61;100.00;99948.29;113014;1243;23188;-56
2024/04/01 05:17:06;;;;;;;18.90;4.80;;;;;;;9.66;100.00;99946.20;112631;1247;22477;-47
2024/04/01 05:19:32;;;;;;;22.90;5.90;;;;;;;9.71;100.00;99944.80;112698;1234;22780;-46
2024/04/01 05:21:59;;;;;;;16.20;4.10;;;;;;;9.76;100.00;99943.05;112904;1241;22444;-57
2024/04/01 05:24:26;;;;;;;19.70;5.40;;;;;;;9.81;100.00;99942.52;112902;1243;23062;-56
2024/04/01 05:26:56;;;;;;;36.30;11.10;;;;;;;9.85;100.00;99941.45;112921;1247;22353;-48
2024/04/01 05:29:23;;;;;;;31.10;8.40;;;;;;;9.89;100.00;99941.97;112648;1238;23142;-57
2024/04/01 05:31:50;;;;;;;29.10;8.00;;;;;;;9.90;100.00;99942.31;112783;1243;22237;-57
2024/04/01 05:34:17;;;;;;;30.50;8.90;;;;;;;9.94;100.00;99948.23;112005;1244;23170;-46
2024/04/01 05:36:53;;;;;;;25.40;8.40;;;;;;;9.98;100.00;99948.56;112386;1244;22416;-57
2024/04/01 05:39:22;;;;;;;28.70;9.10;;;;;;;10.03;100.00;99947.33;113000;1247;22341;-58
2024/04/01 05:41:52;;;;;;;28.30;9.80;;;;;;;10.08;100.00;99940.17;113052;1236;22438;-57
2024/04/01 05:45:04;;;;;;;25.90;9.00;;;;;;;10.16;100.00;99946.59;112776;1240;22462;-57
2024/04/01 05:47:45;;;;;;;29.20;8.40;;;;;;;10.33;100.00;99947.77;113030;1236;22399;-56
2024/04/01 05:50:29;;;;;;;34.90;9.40;;;;;;;10.44;100.00;99945.98;113065;1247;22430;-57
2024/04/01 05:53:38;;;;;;;28.90;9.20;;;;;;;10.55;100.00;99951.15;112991;1241;22824;-57
2024/04/01 05:56:36;;;;;;;25.70;8.30;;;;;;;10.64;100.00;99954.92;113124;1237;22272;-47
2024/04/01 05:59:14;;;;;;;21.60;7.00;;;;;;;10.76;100.00;99953.65;113127;1247;23278;-48
2024/04/01 06:01:41;;;;;;;28.90;8.30;;;;;;;10.89;100.00;99954.95;112488;1236;22241;-59
2024/04/01 06:04:21;;;;;;;26.00;7.80;;;;;;;11.01;100.00;99954.70;112808;1244;22557;-56
2024/04/01 06:06:51;;;;;;;25.40;8.10;;;;;;;11.13;100.00;99949.02;112890;1247;22235;-57
2024/04/01 06:09:20;;;;;;;29.90;10.50;;;;;;;11.22;100.00;99951.73;112953;1244;23220;-48
2024/04/01 06:11:47;;;;;;;23.60;9.50;;;;;;;11.30;100.00;99954.48;112914;1247;22444;-58
2024/04/01 06:14:18;;;;;;;23.60;8.10;;;;;;;11.34;100.00;99953.39;112668;1247;22492;-57
2024/04/01 06:16:46;;;;;;;27.80;8.80;;;;;;;11.39;100.00;99956.14;112609;1247;22410;-57
2024/04/01 06:19:22;;;;;;;26.50;7.90;;;;;;;11.50;100.00;99955.34;112599;1247;22499;-56
2024/04/01 06:21:50;;;;;;;19.90;6.60;;;;;;;11.60;100.00;99954.20;112684;1247;22973;-57
2024/04/01 06:24:19;;;;;;;26.40;8.10;;;;;;;11.70;100.00;99953.58;112493;1247;22857;-58
2024/04/01 06:26:51;;;;;;;27.60;8.00;;;;;;;11.82;100.00;99945.95;111715;1247;22597;-48
2024/04/01 06:29:24;;;;;;;23.60;8.50;;;;;;;11.96;100.00;99946.52;111391;1247;22613;-57
2024/04/01 06:31:53;;;;;;;23.60;7.60;;;;;;;12.05;100.00;99939.96;112860;1247;22401;-58
2024/04/01 06:34:21;;;;;;;21.80;7.70;;;;;;;12.10;100.00;99939.89;112876;1239;22252;-57
2024/04/01 06:36:51;;;;;;;23.00;8.50;;;;;;;12.19;100.00;99938.38;112036;1231;22719;-48
2024/04/01 06:39:18;;;;;;;26.90;7.20;;;;;;;12.25;100.00;99938.48;112865;1247;22242;-57
2024/04/01 06:41:46;;;;;;;27.40;7.70;;;;;;;12.33;100.00;99935.05;113053;1247;22423;-47
2024/04/01 06:44:16;;;;;;;31.40;8.00;;;;;;;12.45;100.00;99935.61;112061;1247;25383;-57
2024/04/01 06:46:43;;;;;;;20.50;7.90;;;;;;;12.58;100.00;99939.45;112080;1247;22317;-56
2024/04/01 06:49:14;;;;;;;21.50;8.00;;;;;;;12.70;100.00;99941.02;112677;1247;23387;-46
2024/04/01 06:51:45;;;;;;;25.20;7.50;;;;;;;12.81;100.00;99939.13;112114;1247;23492;-57
2024/04/01 06:54:17;;;;;;;33.20;7.70;;;;;;;12.92;100.00;99937.56;112304;1247;22428;-46
2024/04/01 06:56:49;;;;;;;23.00;6.80;;;;;;;13.02;100.00;99936.35;111933;1247;22603;-48
2024/04/01 06:59:57;;;;;;;16.50;6.20;;;;;;;13.14;100.00;99936.52;111437;1247;22511;-51
2024/04/01 07:02:36;;;;;;;21.40;6.40;;;;;;;13.23;99.99;99931.48;111908;1247;22894;-54
2024/04/01 07:05:10;;;;;;;28.60;7.20;;;;;;;13.28;99.45;99928.77;111989;1247;22497;-47
2024/04/01 07:08:01;;;;;;;23.90;7.40;;;;;;;13.34;99.36;99928.16;112901;1247;22414;-57
2024/04/01 07:11:25;;;;;;;21.30;9.10;;;;;;;13.44;98.61;99923.96;112544;1247;22183;-48
2024/04/01 07:14:22;;;;;;;29.00;7.60;;;;;;;13.60;98.79;99922.09;112652;1247;22503;-56
2024/04/01 07:17:49;;;;;;;24.80;7.10;;;;;;;13.84;97.04;99913.05;112136;1246;25190;-48
2024/04/01 07:20:23;;;;;;;25.80;6.80;;;;;;;14.00;95.24;99906.27;111941;1247;22691;-47
2024/04/01 07:22:51;;;;;;;22.40;6.10;;;;;;;14.06;94.87;99905.61;111998;1247;22546;-46
2024/04/01 07:25:21;;;;;;;18.80;6.20;;;;;;;14.11;94.72;99906.38;110891;1247;23285;-56
2024/04/01 07:27:48;;;;;;;21.00;8.20;;;;;;;14.15;93.77;99912.25;112634;1247;22425;-47
2024/04/01 07:30:15;;;;;;;24.90;6.20;;;;;;;14.19;93.27;99910.42;112436;1247;22444;-56
2024/04/01 07:32:42;;;;;;;28.20;6.30;;;;;;;14.26;92.99;99907.31;112188;1247;23657;-49
2024/04/01 07:35:14;;;;;;;27.10;6.00;;;;;;;14.36;92.69;99904.98;111496;1247;22564;-48
2024/04/01 07:37:47;;;;;;;16.90;5.70;;;;;;;14.49;91.39;99904.72;112200;1246;23030;-46
2024/04/01 07:40:28;;;;;;;17.90;5.80;;;;;;;14.56;91.10;99901.59;112113;1246;22584;-46
2024/04/01 07:43:28;;;;;;;20.60;5.50;;;;;;;14.70;91.54;99893.73;112382;1247;22749;-55
2024/04/01 07:46:01;;;;;;;18.50;6.50;;;;;;;14.99;90.62;99888.81;112594;1247;22450;-56
2024/04/01 07:49:07;;;;;;;19.40;6.20;;;;;;;15.20;89.42;99880.39;112135;1247;22941;-55
2024/04/01 07:52:16;;;;;;;23.00;6.70;;;;;;;15.41;87.09;99878.61;112570;1247;22715;-47
2024/04/01 08:03:18;;;;;;;22.80;6.60;;;;;;;16.02;84.67;99876.63;112333;1247;22576;-49
2024/04/01 08:05:54;;;;;;;26.90;5.90;;;;;;;16.17;84.07;99875.63;112156;1247;23241;-58
2024/04/01 08:08:21;;;;;;;19.70;6.00;;;;;;;16.25;82.51;99870.29;112480;1247;24493;-51
2024/04/01 08:10:53;;;;;;;14.00;4.70;;;;;;;16.32;82.53;99873.80;111883;1240;22434;-55
2024/04/01 08:13:21;;;;;;;17.30;5.00;;;;;;;16.43;82.30;99874.33;111216;1247;25253;-51
2024/04/01 08:16:01;;;;;;;28.30;5.00;;;;;;;16.57;82.26;99880.40;112777;1247;22184;-50
2024/04/01 08:18:28;;;;;;;18.30;4.60;;;;;;;16.71;81.27;99870.65;112698;1247;22376;-60
2024/04/01 08:20:56;;;;;;;17.50;5.60;;;;;;;16.82;81.24;99871.40;112938;1247;23379;-61
2024/04/01 08:23:23;;;;;;;20.20;6.20;;;;;;;16.89;79.27;99875.90;112516;1247;22437;-50
2024/04/01 08:25:50;;;;;;;20.90;7.00;;;;;;;16.89;78.93;99871.51;112810;1247;23455;-47
2024/04/01 08:28:17;;;;;;;16.20;6.30;;;;;;;16.89;79.10;99868.71;112844;1241;22959;-48
2024/04/01 08:30:44;;;;;;;24.70;6.10;;;;;;;16.92;78.84;99866.29;111932;1247;22635;-48
2024/04/01 08:33:12;;;;;;;20.80;5.50;;;;;;;16.94;78.06;99870.99;112866;1247;22759;-49
2024/04/01 08:35:40;;;;;;;18.50;5.30;;;;;;;16.96;78.48;99872.31;112795;1247;22375;-56
2024/04/01 08:38:07;;;;;;;24.30;6.10;;;;;;;17.07;78.29;99868.27;112744;1247;22964;-56
2024/04/01 08:40:49;;;;;;;27.40;8.70;;;;;;;17.20;78.17;99865.71;112788;1247;23008;-55
2024/04/01 08:43:19;;;;;;;21.90;6.30;;;;;;;17.36;77.82;99856.16;112595;1247;22270;-48
2024/04/01 08:45:46;;;;;;;14.20;5.70;;;;;;;17.52;77.90;99851.56;112468;1247;23138;-49
2024/04/01 08:48:14;;;;;;;24.20;7.20;;;;;;;17.68;77.53;99846.77;112586;1247;23103;-56
2024/04/01 08:51:13;;;;;;;21.80;5.90;;;;;;;17.83;76.56;99836.00;111828;1247;23364;-56
2024/04/01 08:55:08;;;;;;;12.60;4.70;;;;;;;17.98;73.85;99823.28;112394;1247;22956;-55
2024/04/01 08:58:40;;;;;;;16.30;6.70;;;;;;;18.22;74.70;99815.66;112837;1247;22382;-48
2024/04/01 09:01:25;;;;;;;20.50;5.30;;;;;;;18.39;72.99;99815.16;112809;1247;22883;-48
2024/04/01 09:03:52;;;;;;;22.30;5.40;;;;;;;18.46;71.41;99810.66;112819;1247;22401;-47
2024/04/01 09:06:22;;;;;;;20.20;4.80;;;;;;;18.48;71.01;99824.69;112716;1247;23000;-55
2024/04/01 09:08:52;;;;;;;18.00;4.90;;;;;;;18.51;71.13;99827.03;112334;1247;22364;-48
2024/04/01 09:11:20;;;;;;;15.80;5.60;;;;;;;18.54;70.82;99836.27;112619;1247;23081;-48
2024/04/01 09:13:48;;;;;;;12.80;5.60;;;;;;;18.52;70.31;99836.15;112588;1247;22409;-48
2024/04/01 09:16:22;;;;;;;16.80;5.70;;;;;;;18.50;70.85;99841.38;112694;1247;22877;-55
2024/04/01 09:18:49;;;;;;;21.80;4.80;;;;;;;18.52;70.59;99837.26;112972;1247;23136;-55
2024/04/01 09:21:18;;;;;;;23.20;4.80;;;;;;;18.57;71.09;99836.16;112972;1247;23277;-55
2024/04/01 09:23:45;;;;;;;16.30;4.40;;;;;;;18.67;70.97;99830.66;113007;1247;22378;-54
2024/04/01 09:26:13;;;;;;;17.80;4.40;;;;;;;18.77;69.88;99832.21;112545;1247;22474;-58
2024/04/01 09:28:41;;;;;;;19.30;4.40;;;;;;;18.80;69.26;99830.31;112518;1247;22892;-55
2024/04/01 09:31:09;;;;;;;12.70;3.10;;;;;;;18.81;69.33;99832.75;112533;1247;23062;-49
2024/04/01 09:33:36;;;;;;;16.20;4.20;;;;;;;18.83;69.06;99835.46;112707;1247;22222;-56
2024/04/01 09:36:03;;;;;;;19.20;4.10;;;;;;;18.84;69.27;99833.16;112740;1247;22993;-54
2024/04/01 09:38:34;;;;;;;15.10;3.50;;;;;;;18.86;69.73;99830.25;112315;1247;22914;-55
2024/04/01 09:41:02;;;;;;;21.10;4.20;;;;;;;18.94;69.55;99826.90;112781;1247;22443;-55
2024/04/01 09:43:30;;;;;;;25.60;4.40;;;;;;;19.00;68.73;99815.50;112834;1247;22396;-47
2024/04/01 09:46:16;;;;;;;9.80;4.20;;;;;;;19.04;68.75;99821.17;112646;1246;22584;-49
2024/04/01 09:48:43;;;;;;;15.70;4.10;;;;;;;19.09;69.39;99823.61;112504;1247;22314;-47
2024/04/01 09:51:11;;;;;;;18.00;4.00;;;;;;;19.17;68.97;99823.46;112546;1247;23390;-47
2024/04/01 09:53:38;;;;;;;16.10;4.40;;;;;;;19.25;69.08;99813.59;112571;1247;23186;-47
2024/04/01 09:56:12;;;;;;;17.30;4.70;;;;;;;19.31;69.02;99808.88;112877;1247;22167;-48
2024/04/01 09:58:46;;;;;;;21.40;6.40;;;;;;;19.38;69.35;99810.86;112851;1247;22943;-48
2024/04/01 10:01:28;;;;;;;12.50;5.50;;;;;;;19.47;69.23;99806.63;112854;1247;22430;-48
2024/04/01 10:04:31;;;;;;;20.10;6.50;;;;;;;19.55;69.26;99803.21;112945;1247;22353;-59
2024/04/01 10:07:22;;;;;;;15.60;5.70;;;;;;;19.62;68.93;99809.13;112435;1247;22567;-58
2024/04/01 10:10:14;;;;;;;14.90;5.10;;;;;;;19.69;69.01;99818.02;112735;1247;22506;-51
2024/04/01 10:12:49;;;;;;;16.70;5.30;;;;;;;19.74;68.45;99823.48;112990;1247;23221;-58
2024/04/01 10:15:27;;;;;;;22.30;6.30;;;;;;;19.76;68.83;99826.57;112746;1237;22248;-59
2024/04/01 10:18:20;;;;;;;12.40;4.20;;;;;;;19.76;68.06;99821.95;112571;1247;22967;-58
2024/04/01 10:21:17;;;;;;;16.40;5.40;;;;;;;19.72;68.35;99815.61;112445;1247;22513;-56
2024/04/01 10:24:18;;;;;;;14.90;4.80;;;;;;;19.72;68.87;99811.36;112078;1255;22273;-50
2024/04/01 10:27:22;;;;;;;16.40;4.90;;;;;;;19.77;68.70;99809.73;111739;1255;23236;-57
2024/04/01 10:30:25;;;;;;;21.20;4.90;;;;;;;19.85;68.98;99814.27;112019;1255;22468;-57
2024/04/01 10:33:19;;;;;;;19.60;5.40;;;;;;;19.99;68.01;99804.63;111650;1255;22930;-49
2024/04/01 10:35:56;;;;;;;19.60;4.70;;;;;;;20.19;67.85;99802.98;111643;1255;22277;-59
2024/04/01 10:39:07;;;;;;;12.20;3.70;;;;;;;20.40;67.17;99806.58;111497;1255;22336;-49
2024/04/01 10:41:57;;;;;;;11.00;3.50;;;;;;;20.68;66.15;99811.98;110794;1264;22207;-58
2024/04/01 10:44:53;;;;;;;20.20;3.40;;;;;;;20.84;64.65;99809.04;110583;1264;22413;-59
2024/04/01 10:47:28;;;;;;;15.40;4.10;;;;;;;20.93;64.65;99807.35;110604;1264;22309;-50
2024/04/01 10:50:12;;;;;;;14.40;4.00;;;;;;;21.08;64.31;99805.19;110811;1264;22281;-49
2024/04/01 10:52:49;;;;;;;21.10;4.80;;;;;;;21.34;64.20;99799.27;110829;1264;23274;-49
2024/04/01 10:55:50;;;;;;;11.80;3.80;;;;;;;21.58;63.40;99793.73;110864;1264;22409;-59
2024/04/01 10:58:54;;;;;;;16.00;3.50;;;;;;;21.76;62.88;99784.76;110861;1264;22887;-50
2024/04/01 11:01:47;;;;;;;13.50;4.00;;;;;;;21.89;63.27;99791.17;111510;1256;22450;-58
2024/04/01 11:04:26;;;;;;;18.40;4.80;;;;;;;22.02;62.71;99791.35;111864;1257;22441;-59
2024/04/01 11:06:59;;;;;;;12.30;3.70;;;;;;;22.14;62.79;99793.72;111964;1257;22901;-58
2024/04/01 11:09:35;;;;;;;16.70;4.90;;;;;;;22.22;61.71;99781.39;112033;1257;22395;-58
2024/04/01 11:12:18;;;;;;;12.00;3.60;;;;;;;22.24;61.65;99785.19;112122;1257;22329;-58
2024/04/01 11:14:49;;;;;;;14.30;4.10;;;;;;;22.30;61.14;99780.91;111439;1257;22538;-49
2024/04/01 11:17:17;;;;;;;17.10;3.90;;;;;;;22.38;57.89;99778.39;111401;1247;22902;-54
2024/04/01 11:19:51;;;;;;;17.70;4.70;;;;;;;22.51;58.08;99775.83;112299;1247;22583;-58
2024/04/01 11:22:25;;;;;;;17.30;4.90;;;;;;;22.72;57.31;99781.01;112763;1247;22413;-58
2024/04/01 11:25:14;;;;;;;18.60;5.80;;;;;;;22.79;56.76;99776.52;112190;1247;23306;-58
2024/04/01 11:28:03;;;;;;;18.80;6.10;;;;;;;22.69;56.19;99770.17;112687;1247;23243;-61
2024/04/01 11:30:35;;;;;;;13.10;5.30;;;;;;;22.46;56.80;99770.25;112566;1247;23661;-58
2024/04/01 11:33:08;;;;;;;21.40;5.40;;;;;;;22.30;57.77;99772.03;112714;1247;22178;-58
2024/04/01 11:35:53;;;;;;;21.60;5.70;;;;;;;22.23;57.89;99772.11;112197;1247;23222;-49
2024/04/01 11:38:38;;;;;;;14.70;6.10;;;;;;;22.13;57.81;99772.82;112533;1247;22444;-49
2024/04/01 11:41:08;;;;;;;19.30;6.00;;;;;;;21.98;57.76;99771.35;112699;1247;22985;-51
2024/04/01 11:43:35;;;;;;;22.80;5.40;;;;;;;21.85;58.82;99767.44;112545;1247;22408;-49
2024/04/01 11:46:02;;;;;;;16.80;5.60;;;;;;;21.82;59.17;99761.78;112811;1247;22970;-52
2024/04/01 11:48:30;;;;;;;19.30;7.70;;;;;;;21.82;59.00;99758.89;112598;1247;23698;-48
2024/04/01 11:50:59;;;;;;;12.60;4.90;;;;;;;21.80;59.30;99756.67;112855;1247;22845;-49
2024/04/01 11:53:26;;;;;;;21.70;6.80;;;;;;;21.80;59.26;99752.42;112928;1247;22304;-47
2024/04/01 11:55:55;;;;;;;23.70;8.90;;;;;;;21.83;59.55;99754.60;112719;1247;22522;-47
2024/04/01 11:58:22;;;;;;;26.60;9.90;;;;;;;21.88;59.23;99752.89;112820;1247;23136;-55
2024/04/01 12:00:54;;;;;;;23.90;8.00;;;;;;;21.91;58.95;99751.67;112802;1247;22222;-57
2024/04/01 12:03:21;;;;;;;15.00;6.10;;;;;;;21.95;59.17;99756.05;112892;1247;23067;-56
2024/04/01 12:05:51;;;;;;;14.10;4.90;;;;;;;22.01;58.76;99755.49;112897;1247;22218;-48
2024/04/01 12:08:28;;;;;;;23.30;6.20;;;;;;;22.02;58.86;99752.29;112872;1247;23481;-50
2024/04/01 12:10:59;;;;;;;19.20;5.50;;;;;;;22.02;58.76;99755.45;111696;1247;22430;-49
2024/04/01 12:13:27;;;;;;;25.90;4.80;;;;;;;22.04;59.36;99754.84;112880;1247;22927;-50
2024/04/01 12:15:54;;;;;;;22.50;5.50;;;;;;;22.05;59.38;99757.27;112872;1247;22917;-50
2024/04/01 12:18:21;;;;;;;19.40;4.50;;;;;;;22.05;58.83;99752.98;112840;1247;23256;-47
2024/04/01 12:20:54;;;;;;;14.50;4.50;;;;;;;22.05;59.22;99757.27;112681;1247;23179;-49
2024/04/01 12:23:22;;;;;;;17.30;4.40;;;;;;;22.06;58.78;99749.04;112846;1247;22298;-56
2024/04/01 12:25:50;;;;;;;18.10;3.90;;;;;;;22.04;59.53;99745.97;112856;1247;22256;-49
2024/04/01 12:28:17;;;;;;;19.10;4.30;;;;;;;22.05;60.13;99750.36;112784;1247;22410;-49
2024/04/01 12:30:48;;;;;;;13.20;4.20;;;;;;;22.04;59.65;99741.70;112831;1247;23142;-49
2024/04/01 12:33:15;;;;;;;21.60;4.30;;;;;;;22.04;60.08;99739.55;112671;1247;23814;-57
2024/04/01 12:35:56;;;;;;;15.00;4.10;;;;;;;22.08;60.11;99733.14;112881;1247;22688;-58
2024/04/01 12:38:23;;;;;;;14.80;4.30;;;;;;;22.11;60.35;99730.33;112916;1247;23722;-50
2024/04/01 12:40:51;;;;;;;19.10;4.50;;;;;;;22.14;60.83;99724.11;112996;1247;22225;-49
2024/04/01 12:43:20;;;;;;;14.70;4.10;;;;;;;22.16;60.54;99718.14;113051;1247;22413;-58
2024/04/01 12:45:47;;;;;;;15.00;4.50;;;;;;;22.17;60.36;99712.93;113118;1247;22841;-56
2024/04/01 12:48:14;;;;;;;13.50;4.40;;;;;;;22.19;60.49;99707.32;112657;1247;22627;-55
2024/04/01 12:50:42;;;;;;;13.10;4.10;;;;;;;22.19;60.70;99698.61;113180;1247;22386;-56
2024/04/01 12:53:38;;;;;;;27.90;5.10;;;;;;;22.18;60.74;99693.87;113148;1247;22400;-57
2024/04/01 12:56:26;;;;;;;15.20;4.00;;;;;;;22.17;60.82;99684.00;112236;1256;22464;-56
2024/04/01 12:59:24;;;;;;;16.30;4.40;;;;;;;22.18;60.95;99675.95;112089;1256;22802;-48
2024/04/01 13:02:15;;;;;;;25.00;5.80;;;;;;;22.18;60.73;99663.31;112077;1256;23675;-50
2024/04/01 13:05:11;;;;;;;20.30;5.00;;;;;;;22.20;60.68;99658.07;112048;1256;23253;-57
2024/04/01 13:08:09;;;;;;;15.40;4.50;;;;;;;22.25;60.99;99652.30;111772;1261;22573;-56
2024/04/01 13:10:45;;;;;;;24.40;5.10;;;;;;;22.32;60.84;99647.77;110869;1261;22827;-57
2024/04/01 13:13:23;;;;;;;20.50;5.20;;;;;;;22.43;61.34;99640.02;111802;1261;22432;-49
2024/04/01 13:16:00;;;;;;;19.10;5.20;;;;;;;22.67;61.41;99642.15;111449;1261;22548;-57
2024/04/01 13:18:33;;;;;;;21.70;6.20;;;;;;;22.94;61.17;99630.02;111182;1261;22543;-57
2024/04/01 13:21:09;;;;;;;28.10;6.60;;;;;;;23.23;60.53;99628.02;110544;1261;23899;-57
2024/04/01 13:23:47;;;;;;;24.80;6.10;;;;;;;23.51;59.65;99618.96;109572;1261;22543;-49
